Terminal Aerodrome Forecast
Issued by NWS

Home | Current Version | Previous Version | Text Only | Print | Product List | Glossary On
Versions: 1 2 3 4 5 6 7 8 9 10 11 12 13 14
498
FTUS41 KCAR 021731
TAFHUL
TAF
KHUL 021731Z 0218/0318 13008KT P6SM -RA OVC050
     FM022100 11008KT 5SM -RA BR OVC025
     FM030000 10005KT 4SM -RA BR OVC015
     FM030500 03004KT 3SM -DZ BR OVC004
     FM031500 36005KT P6SM BKN015=

USA.gov is the U.S. government's official web portal to all federal, state and local government web resources and services.